Scott Bar, California
Current Conditions -  °F | °C
As of 7:53 AM on Thursday 29 Jan 2015 (Local Time) from KSIY Reporting Station
Moderate Fog Moderate Fog  
Wind Chill: 28°   Ceiling: 100
Heat Index: 28°   Visibility: 0mi
Dew Point: 27°   Wind: 0mph
Humidity: 96%   Direction: NA
Pressure: 30.29"   Gusts: NA
Location:  41.74°N, 123°W
Report Text: KSIY 291553Z AUTO 00000KT M1/4SM FZFG VV001 M02/M03 A3029 RMK AO2 SLP283 T10221028
Loading
Personal Weather Stations






























Interactive Weather Map New forecast layout! Learn more

10-Day Weather Forecast

Advertisements
Track Severe Weather on mobile